Time;durP1;ratioP1;P1;durP2;ratioP2;P2;SDS_P1;SDS_P2;PMS_P1;PMS_P2;Temp;Humidity;BMP_temperature;BMP_pressure;BME280_temperature;BME280_humidity;BME280_pressure;Samples;Min_cycle;Max_cycle;Signal;HPM_P1;HPM_P2
2023/08/13 00:01:12;;;;;;;4.40;2.40;;;;;;;14.99;100.00;99860.61;105889;1254;74633;-74
2023/08/13 00:03:39;;;;;;;3.80;2.70;;;;;;;14.97;100.00;99864.39;105824;1255;61504;-73
2023/08/13 00:06:06;;;;;;;2.80;2.60;;;;;;;14.94;100.00;99861.02;105788;1250;72383;-74
2023/08/13 00:08:33;;;;;;;4.90;2.90;;;;;;;14.91;100.00;99862.06;105805;1251;61379;-73
2023/08/13 00:11:00;;;;;;;3.60;2.20;;;;;;;14.88;100.00;99867.48;105745;1253;61234;-74
2023/08/13 00:13:27;;;;;;;4.30;2.60;;;;;;;14.85;100.00;99869.58;105802;1257;74456;-73
2023/08/13 00:15:53;;;;;;;3.00;2.80;;;;;;;14.81;100.00;99867.61;105797;1256;61382;-73
2023/08/13 00:18:20;;;;;;;3.60;2.50;;;;;;;14.79;100.00;99864.55;105796;1251;72599;-74
2023/08/13 00:20:46;;;;;;;8.40;2.80;;;;;;;14.77;100.00;99866.20;105759;1253;61363;-74
2023/08/13 00:23:13;;;;;;;2.90;2.30;;;;;;;14.76;100.00;99867.87;105803;1255;61214;-73
2023/08/13 00:25:40;;;;;;;4.30;2.70;;;;;;;14.74;100.00;99868.15;105818;1255;74638;-74
2023/08/13 00:28:07;;;;;;;7.50;2.80;;;;;;;14.72;100.00;99869.11;105911;1251;70935;-76
2023/08/13 00:30:34;;;;;;;3.90;2.60;;;;;;;14.70;100.00;99868.66;105811;1251;72378;-78
2023/08/13 00:33:01;;;;;;;5.70;2.70;;;;;;;14.67;100.00;99869.13;105822;1251;62565;-76
2023/08/13 00:35:28;;;;;;;3.00;2.50;;;;;;;14.66;100.00;99869.05;105826;1255;61174;-74
2023/08/13 00:37:55;;;;;;;8.10;2.70;;;;;;;14.63;100.00;99871.29;105696;1251;74732;-75
2023/08/13 00:40:22;;;;;;;5.70;2.40;;;;;;;14.60;100.00;99873.54;105827;1251;71413;-74
2023/08/13 00:42:48;;;;;;;6.60;2.20;;;;;;;14.58;100.00;99875.20;105782;1253;61148;-74
2023/08/13 00:45:15;;;;;;;3.80;2.50;;;;;;;14.56;100.00;99875.64;105830;1253;61295;-74
2023/08/13 00:47:42;;;;;;;3.00;2.30;;;;;;;14.53;100.00;99875.58;105810;1255;61566;-74
2023/08/13 00:50:09;;;;;;;3.50;2.40;;;;;;;14.52;100.00;99874.22;105529;1251;74636;-74
2023/08/13 00:52:36;;;;;;;2.60;2.30;;;;;;;14.50;100.00;99875.88;105873;1251;71081;-74
2023/08/13 00:55:03;;;;;;;3.70;2.30;;;;;;;14.46;100.00;99877.65;105635;1251;72675;-74
2023/08/13 00:57:30;;;;;;;4.30;2.70;;;;;;;14.43;100.00;99877.25;105846;1251;61299;-73
2023/08/13 00:59:57;;;;;;;2.70;2.50;;;;;;;14.39;100.00;99878.84;105521;1258;61263;-76
2023/08/13 01:02:24;;;;;;;5.80;2.50;;;;;;;14.36;100.00;99877.38;105892;1254;74648;-75
2023/08/13 01:04:51;;;;;;;3.80;2.50;;;;;;;14.33;100.00;99879.80;105809;1251;61314;-74
2023/08/13 01:07:18;;;;;;;4.20;2.50;;;;;;;14.30;100.00;99881.92;105749;1251;71455;-75
2023/08/13 01:09:56;;;;;;;3.40;2.40;;;;;;;14.24;100.00;99880.77;105820;1251;61237;-75
2023/08/13 01:12:48;;;;;;;4.80;2.40;;;;;;;14.18;100.00;99879.41;105850;1251;61308;-75
2023/08/13 01:15:20;;;;;;;5.10;2.50;;;;;;;14.14;100.00;99884.69;105803;1254;74724;-74
2023/08/13 01:17:48;;;;;;;4.60;2.50;;;;;;;14.10;100.00;99887.19;105702;1257;69645;-73
2023/08/13 01:20:15;;;;;;;4.00;2.40;;;;;;;14.07;100.00;99886.26;105710;1251;72601;-74
2023/08/13 01:22:46;;;;;;;5.40;2.70;;;;;;;14.05;100.00;99882.98;105806;1251;61266;-73
2023/08/13 01:25:13;;;;;;;4.90;2.30;;;;;;;14.04;100.00;99884.60;105820;1255;61240;-74
2023/08/13 01:27:56;;;;;;;5.90;2.40;;;;;;;14.04;100.00;99887.60;105664;1251;74637;-75
2023/08/13 01:30:39;;;;;;;2.90;2.70;;;;;;;14.04;100.00;99890.96;105798;1251;70961;-74
2023/08/13 01:33:09;;;;;;;5.90;2.10;;;;;;;14.01;100.00;99892.86;105782;1251;71759;-74
2023/08/13 01:35:36;;;;;;;3.10;2.40;;;;;;;13.98;100.00;99893.67;105743;1251;61362;-74
2023/08/13 01:38:03;;;;;;;3.70;2.30;;;;;;;13.96;100.00;99900.50;105820;1253;61264;-74
2023/08/13 01:40:30;;;;;;;7.30;2.50;;;;;;;13.93;100.00;99898.46;105807;1251;74615;-74
2023/08/13 01:42:57;;;;;;;4.60;2.60;;;;;;;13.91;100.00;99896.60;105849;1251;71015;-75
2023/08/13 01:45:24;;;;;;;4.30;2.70;;;;;;;13.90;100.00;99899.30;105772;1251;72677;-74
2023/08/13 01:47:53;;;;;;;7.00;2.90;;;;;;;13.89;100.00;99899.36;105831;1253;61334;-74
2023/08/13 01:50:21;;;;;;;3.60;2.50;;;;;;;13.86;100.00;99899.30;105788;1256;61096;-74
2023/08/13 01:52:48;;;;;;;4.20;2.70;;;;;;;13.85;100.00;99903.08;105938;1251;74692;-73
2023/08/13 01:55:14;;;;;;;4.70;3.00;;;;;;;13.81;100.00;99906.73;105749;1253;70121;-75
2023/08/13 01:57:41;;;;;;;4.00;2.60;;;;;;;13.79;100.00;99907.55;105810;1255;72548;-75
2023/08/13 02:00:08;;;;;;;2.90;2.70;;;;;;;13.76;100.00;99909.23;105682;1251;61261;-74
2023/08/13 02:02:35;;;;;;;8.00;2.90;;;;;;;13.73;100.00;99909.16;105787;1253;61187;-75
2023/08/13 02:05:02;;;;;;;3.80;2.90;;;;;;;13.69;100.00;99915.67;105816;1253;74717;-74
2023/08/13 02:07:29;;;;;;;4.00;2.80;;;;;;;13.67;100.00;99913.13;105717;1253;71128;-74
2023/08/13 02:09:56;;;;;;;4.10;2.90;;;;;;;13.65;100.00;99915.69;105766;1250;72639;-74
2023/08/13 02:12:23;;;;;;;7.60;3.20;;;;;;;13.61;100.00;99921.48;105804;1251;61238;-74
2023/08/13 02:14:50;;;;;;;4.90;2.70;;;;;;;13.57;100.00;99913.90;105816;1252;61237;-73
2023/08/13 02:17:17;;;;;;;5.80;3.10;;;;;;;13.53;100.00;99919.52;105785;1253;74730;-75
2023/08/13 02:19:44;;;;;;;6.40;3.20;;;;;;;13.49;100.00;99920.38;105817;1251;71107;-73
2023/08/13 02:22:11;;;;;;;4.20;3.30;;;;;;;13.44;100.00;99921.29;105881;1252;72711;-75
2023/08/13 02:24:38;;;;;;;3.70;3.10;;;;;;;13.41;100.00;99923.54;105806;1253;61929;-73
2023/08/13 02:27:05;;;;;;;5.70;2.90;;;;;;;13.41;100.00;99924.94;105788;1254;61237;-73
2023/08/13 02:29:32;;;;;;;6.40;3.20;;;;;;;13.41;100.00;99928.10;105804;1255;74352;-74
2023/08/13 02:31:59;;;;;;;6.80;3.40;;;;;;;13.41;100.00;99925.80;105783;1251;71244;-74
2023/08/13 02:34:26;;;;;;;5.70;2.90;;;;;;;13.42;100.00;99924.92;105774;1256;72710;-73
2023/08/13 02:36:53;;;;;;;3.80;2.90;;;;;;;13.42;100.00;99922.63;105841;1251;61672;-73
2023/08/13 02:39:20;;;;;;;4.30;3.10;;;;;;;13.42;100.00;99925.61;105075;1255;1003341;-75
2023/08/13 02:41:47;;;;;;;7.50;3.40;;;;;;;13.41;100.00;99931.30;105903;1251;74618;-74
2023/08/13 02:44:13;;;;;;;7.40;3.10;;;;;;;13.38;100.00;99931.38;105838;1253;71186;-73
2023/08/13 02:46:41;;;;;;;7.40;3.00;;;;;;;13.36;100.00;99937.98;105819;1251;72465;-75
2023/08/13 02:49:08;;;;;;;5.40;3.50;;;;;;;13.35;100.00;99937.49;105779;1253;61340;-75
2023/08/13 02:51:35;;;;;;;3.50;2.70;;;;;;;13.34;100.00;99934.36;105860;1252;61238;-75
2023/08/13 02:54:02;;;;;;;4.10;3.00;;;;;;;13.34;100.00;99933.98;105795;1255;61208;-73
2023/08/13 02:56:29;;;;;;;5.10;2.90;;;;;;;13.35;100.00;99934.84;105855;1251;70992;-75
2023/08/13 02:58:55;;;;;;;4.30;2.90;;;;;;;13.36;100.00;99930.74;105814;1255;72451;-74
2023/08/13 03:01:22;;;;;;;5.00;3.20;;;;;;;13.37;100.00;99929.16;105690;1253;61983;-73
2023/08/13 03:03:52;;;;;;;11.80;3.00;;;;;;;13.37;100.00;99932.29;105789;1254;61273;-73
2023/08/13 03:06:21;;;;;;;5.40;3.40;;;;;;;13.37;100.00;99937.43;105885;1253;73066;-74
2023/08/13 03:08:48;;;;;;;5.40;3.50;;;;;;;13.36;100.00;99935.33;105802;1251;71056;-74
2023/08/13 03:11:14;;;;;;;4.20;3.00;;;;;;;13.37;100.00;99939.02;105820;1251;71410;-73
2023/08/13 03:13:41;;;;;;;6.00;3.30;;;;;;;13.36;100.00;99942.02;105810;1253;62439;-73
2023/08/13 03:16:09;;;;;;;6.30;3.20;;;;;;;13.37;100.00;99945.33;105686;1257;61225;-73
2023/08/13 03:18:36;;;;;;;4.90;3.20;;;;;;;13.39;100.00;99944.76;105782;1254;74690;-73
2023/08/13 03:21:04;;;;;;;3.90;3.00;;;;;;;13.42;100.00;99947.98;105719;1253;71731;-73
2023/08/13 03:23:32;;;;;;;4.30;3.00;;;;;;;13.46;100.00;99949.60;105783;1253;72722;-73
2023/08/13 03:26:00;;;;;;;3.50;3.20;;;;;;;13.49;100.00;99945.05;105739;1250;61345;-74
2023/08/13 03:28:28;;;;;;;8.90;3.60;;;;;;;13.52;100.00;99948.66;105836;1253;61263;-73
2023/08/13 03:30:59;;;;;;;5.20;3.40;;;;;;;13.53;100.00;99946.30;105829;1255;61344;-75
2023/08/13 03:33:26;;;;;;;7.00;3.40;;;;;;;13.54;100.00;99952.77;105740;1253;70964;-73
2023/08/13 03:35:53;;;;;;;4.20;3.40;;;;;;;13.54;100.00;99951.04;105839;1253;72693;-74
2023/08/13 03:38:20;;;;;;;3.80;3.10;;;;;;;13.53;100.00;99956.71;105814;1253;61282;-74
2023/08/13 03:40:48;;;;;;;5.00;3.10;;;;;;;13.52;100.00;99959.58;105897;1252;61276;-74
2023/08/13 03:43:15;;;;;;;10.70;3.20;;;;;;;13.53;100.00;99963.24;105734;1253;74752;-74
2023/08/13 03:45:42;;;;;;;9.40;3.80;;;;;;;13.54;100.00;99968.67;105682;1254;70919;-75
2023/08/13 03:48:09;;;;;;;4.70;3.30;;;;;;;13.55;100.00;99966.52;105818;1253;72470;-74
2023/08/13 03:50:42;;;;;;;4.60;3.30;;;;;;;13.56;100.00;99963.65;105784;1253;61340;-73
2023/08/13 03:53:09;;;;;;;8.00;3.30;;;;;;;13.59;100.00;99966.17;105755;1257;61180;-74
2023/08/13 03:55:37;;;;;;;6.30;4.00;;;;;;;13.62;100.00;99969.74;105762;1251;74654;-74
2023/08/13 03:58:04;;;;;;;5.70;3.10;;;;;;;13.65;100.00;99968.38;105817;1253;70868;-73
2023/08/13 04:00:32;;;;;;;4.30;3.30;;;;;;;13.68;100.00;99969.17;105810;1253;71505;-74
2023/08/13 04:02:59;;;;;;;5.40;3.10;;;;;;;13.69;100.00;99972.45;105896;1252;61244;-74
2023/08/13 04:05:41;;;;;;;5.70;3.30;;;;;;;13.72;100.00;99972.34;105924;1253;61250;-73
2023/08/13 04:08:09;;;;;;;6.00;3.30;;;;;;;13.76;100.00;99976.77;105817;1253;74778;-74
2023/08/13 04:10:36;;;;;;;6.30;3.50;;;;;;;13.81;100.00;99980.64;105626;1254;70972;-74
2023/08/13 04:13:03;;;;;;;4.70;3.60;;;;;;;13.87;100.00;99978.95;105798;1250;72470;-74
2023/08/13 04:15:31;;;;;;;8.70;3.90;;;;;;;13.94;100.00;99977.45;105859;1251;61657;-73
2023/08/13 04:17:58;;;;;;;5.10;3.40;;;;;;;14.01;100.00;99978.75;105747;1253;61253;-73
2023/08/13 04:20:25;;;;;;;8.00;3.70;;;;;;;14.09;100.00;99982.66;105670;1253;74430;-74
2023/08/13 04:22:52;;;;;;;12.00;4.20;;;;;;;14.17;100.00;99978.43;105819;1253;70938;-74
2023/08/13 04:25:18;;;;;;;6.40;3.60;;;;;;;14.25;100.00;99977.39;105755;1256;61250;-74
2023/08/13 04:27:45;;;;;;;8.20;3.70;;;;;;;14.34;100.00;99978.94;105701;1253;61727;-74
2023/08/13 04:30:12;;;;;;;11.30;4.10;;;;;;;14.43;100.00;99982.06;105769;1253;61400;-75
2023/08/13 04:32:39;;;;;;;7.00;3.80;;;;;;;14.53;100.00;99979.02;105954;1253;74609;-74
2023/08/13 04:35:07;;;;;;;7.70;4.00;;;;;;;14.63;100.00;99972.09;105714;1253;70165;-74
2023/08/13 04:37:33;;;;;;;6.50;3.60;;;;;;;14.72;100.00;99976.80;105832;1259;72726;-75
2023/08/13 04:40:00;;;;;;;7.20;3.70;;;;;;;14.82;100.00;99970.71;105908;1250;61963;-75
2023/08/13 04:42:30;;;;;;;7.10;3.20;;;;;;;14.94;100.00;99971.42;105837;1256;61214;-74
2023/08/13 04:44:57;;;;;;;7.70;3.40;;;;;;;15.06;100.00;99968.06;105811;1256;74670;-77
2023/08/13 04:47:24;;;;;;;10.30;4.30;;;;;;;15.16;100.00;99965.80;105754;1253;70910;-75
2023/08/13 04:49:51;;;;;;;10.60;4.40;;;;;;;15.27;100.00;99969.89;105858;1250;72486;-75
2023/08/13 04:52:17;;;;;;;8.10;3.80;;;;;;;15.38;100.00;99972.02;105781;1251;61746;-74
2023/08/13 04:54:47;;;;;;;4.10;3.40;;;;;;;15.50;100.00;99969.33;105745;1255;61452;-74
2023/08/13 04:57:15;;;;;;;5.50;3.40;;;;;;;15.62;100.00;99967.20;105694;1253;73419;-74
2023/08/13 04:59:41;;;;;;;5.70;2.90;;;;;;;15.72;100.00;99968.13;105796;1253;70916;-76
2023/08/13 05:02:08;;;;;;;5.80;3.00;;;;;;;15.82;100.00;99968.90;105681;1253;72503;-75
2023/08/13 05:04:36;;;;;;;7.80;3.40;;;;;;;15.94;100.00;99963.89;105775;1251;61787;-75
2023/08/13 05:07:03;;;;;;;7.70;3.30;;;;;;;16.05;100.00;99959.27;105799;1253;61319;-74
2023/08/13 05:09:31;;;;;;;7.60;3.30;;;;;;;16.17;100.00;99960.80;105679;1253;74654;-74
2023/08/13 05:11:58;;;;;;;10.70;3.20;;;;;;;16.28;100.00;99957.20;105762;1253;70969;-75
2023/08/13 05:14:24;;;;;;;5.50;3.30;;;;;;;16.41;100.00;99952.16;105741;1253;71557;-75
2023/08/13 05:16:55;;;;;;;6.60;3.50;;;;;;;16.52;100.00;99947.70;105776;1256;61341;-73
2023/08/13 05:19:22;;;;;;;13.70;3.80;;;;;;;16.61;100.00;99947.91;105683;1251;61280;-74
2023/08/13 05:21:50;;;;;;;9.10;2.70;;;;;;;16.71;100.00;99944.73;105778;1253;74649;-74
2023/08/13 05:24:16;;;;;;;7.50;2.80;;;;;;;16.82;100.00;99944.49;105886;1253;71196;-75
2023/08/13 05:26:43;;;;;;;8.00;3.10;;;;;;;16.91;100.00;99940.67;105668;1253;72470;-74
2023/08/13 05:29:10;;;;;;;2.70;2.50;;;;;;;17.00;100.00;99940.35;105695;1253;61280;-75
2023/08/13 05:31:37;;;;;;;4.00;3.00;;;;;;;17.10;100.00;99941.95;105669;1257;61393;-74
2023/08/13 05:34:03;;;;;;;3.10;2.50;;;;;;;17.21;100.00;99941.35;105665;1252;73188;-74
2023/08/13 05:36:31;;;;;;;6.20;3.00;;;;;;;17.30;100.00;99940.36;105829;1253;70939;-75
2023/08/13 05:38:58;;;;;;;4.60;2.70;;;;;;;17.38;100.00;99938.66;105771;1255;71234;-75
2023/08/13 05:41:24;;;;;;;4.20;2.60;;;;;;;17.48;100.00;99942.88;105731;1253;62942;-74
2023/08/13 05:43:52;;;;;;;7.00;2.80;;;;;;;17.58;100.00;99941.74;105845;1251;61293;-74
2023/08/13 05:46:20;;;;;;;6.20;2.50;;;;;;;17.70;100.00;99939.88;105840;1251;74725;-74
2023/08/13 05:48:46;;;;;;;7.90;2.80;;;;;;;17.81;100.00;99938.88;105635;1257;69773;-74
2023/08/13 05:51:13;;;;;;;7.10;2.60;;;;;;;17.91;100.00;99934.24;105792;1253;71144;-74
2023/08/13 05:53:39;;;;;;;5.50;2.60;;;;;;;18.00;100.00;99932.63;105828;1252;61235;-75
2023/08/13 05:56:06;;;;;;;7.10;2.50;;;;;;;18.11;100.00;99926.15;105766;1256;61366;-75
2023/08/13 05:58:33;;;;;;;4.30;2.30;;;;;;;18.22;100.00;99930.81;105749;1251;73586;-75
2023/08/13 06:01:00;;;;;;;4.40;2.70;;;;;;;18.32;100.00;99926.29;105790;1253;71164;-75
2023/08/13 06:03:27;;;;;;;5.40;2.70;;;;;;;18.42;100.00;99920.92;105735;1251;72930;-75
2023/08/13 06:05:55;;;;;;;3.50;2.30;;;;;;;18.54;100.00;99928.52;105871;1251;61875;-75
2023/08/13 06:08:22;;;;;;;6.60;2.40;;;;;;;18.66;100.00;99928.54;105835;1254;61257;-74
2023/08/13 06:10:49;;;;;;;8.00;2.70;;;;;;;18.73;100.00;99923.27;105866;1256;74688;-74
2023/08/13 06:13:15;;;;;;;6.90;2.40;;;;;;;18.82;100.00;99922.39;105787;1254;61339;-75
2023/08/13 06:15:42;;;;;;;7.00;2.70;;;;;;;18.91;100.00;99924.66;105725;1251;72442;-75
2023/08/13 06:18:10;;;;;;;3.50;2.30;;;;;;;19.02;100.00;99922.77;105794;1256;61352;-76
2023/08/13 06:20:36;;;;;;;4.10;2.20;;;;;;;19.12;100.00;99924.48;105813;1255;61253;-75
2023/08/13 06:23:03;;;;;;;4.00;2.30;;;;;;;19.21;100.00;99925.63;105812;1253;74538;-76
2023/08/13 06:25:30;;;;;;;6.30;2.30;;;;;;;19.32;100.00;99924.79;105838;1253;71088;-75
2023/08/13 06:27:57;;;;;;;3.70;2.60;;;;;;;19.43;100.00;99926.41;105837;1254;72726;-75
2023/08/13 06:30:24;;;;;;;8.50;2.60;;;;;;;19.53;100.00;99924.27;105814;1253;61253;-75
2023/08/13 06:32:51;;;;;;;6.10;2.50;;;;;;;19.64;100.00;99915.95;105776;1253;61353;-74
2023/08/13 06:35:18;;;;;;;5.90;2.20;;;;;;;19.74;100.00;99915.11;105875;1256;74733;-75
2023/08/13 06:37:45;;;;;;;3.10;2.40;;;;;;;19.87;100.00;99922.11;105772;1256;71086;-75
2023/08/13 06:40:28;;;;;;;3.80;2.20;;;;;;;20.01;100.00;99920.11;105853;1253;72494;-75
2023/08/13 06:42:55;;;;;;;4.30;2.30;;;;;;;20.11;100.00;99915.56;105816;1255;61232;-75
2023/08/13 06:45:26;;;;;;;3.10;2.20;;;;;;;20.17;100.00;99916.70;105808;1253;61346;-75
2023/08/13 06:47:57;;;;;;;4.40;2.00;;;;;;;20.24;100.00;99912.83;105866;1256;74525;-75
2023/08/13 06:50:25;;;;;;;3.60;2.60;;;;;;;20.33;100.00;99913.97;105790;1255;70100;-75
2023/08/13 06:52:52;;;;;;;7.50;2.60;;;;;;;20.42;100.00;99910.86;105940;1253;71220;-75
2023/08/13 06:55:19;;;;;;;4.50;2.20;;;;;;;20.50;100.00;99912.46;105795;1253;61316;-75
2023/08/13 06:57:46;;;;;;;5.30;2.30;;;;;;;20.57;100.00;99916.25;105832;1254;61811;-75
2023/08/13 07:00:14;;;;;;;2.60;2.00;;;;;;;20.66;100.00;99913.58;105857;1255;73383;-75
2023/08/13 07:02:41;;;;;;;7.60;2.30;;;;;;;20.72;100.00;99914.02;105866;1255;70018;-75
2023/08/13 07:05:12;;;;;;;4.60;1.90;;;;;;;20.79;100.00;99911.56;105803;1253;61346;-75
2023/08/13 07:07:39;;;;;;;5.00;2.20;;;;;;;20.89;100.00;99915.84;105875;1251;61362;-74
2023/08/13 07:10:07;;;;;;;5.90;2.40;;;;;;;20.99;100.00;99907.99;105831;1253;61306;-75
2023/08/13 07:12:33;;;;;;;5.50;2.20;;;;;;;21.07;100.00;99905.25;105897;1255;74734;-74
2023/08/13 07:15:03;;;;;;;2.80;2.10;;;;;;;21.15;100.00;99907.36;105780;1251;70822;-74
2023/08/13 07:17:30;;;;;;;5.60;2.00;;;;;;;21.24;100.00;99899.98;105866;1255;72655;-74
2023/08/13 07:19:57;;;;;;;3.00;1.90;;;;;;;21.31;100.00;99907.98;105776;1256;61382;-74
2023/08/13 07:22:23;;;;;;;3.70;1.90;;;;;;;21.39;100.00;99905.41;105802;1255;61294;-75
2023/08/13 07:24:50;;;;;;;4.90;2.20;;;;;;;21.49;100.00;99910.10;105820;1256;61433;-75
2023/08/13 07:27:17;;;;;;;2.90;2.00;;;;;;;21.58;100.00;99901.10;105822;1254;61309;-74
2023/08/13 07:29:43;;;;;;;3.70;2.10;;;;;;;21.65;100.00;99900.70;105806;1251;72499;-75
2023/08/13 07:32:10;;;;;;;4.10;1.90;;;;;;;21.79;100.00;99906.64;105802;1256;61589;-73
2023/08/13 07:34:37;;;;;;;3.00;2.00;;;;;;;21.92;100.00;99898.85;105809;1251;61403;-74
2023/08/13 07:37:04;;;;;;;4.10;2.20;;;;;;;22.03;100.00;99899.47;105884;1255;74448;-74
2023/08/13 07:39:31;;;;;;;6.70;2.30;;;;;;;22.14;100.00;99897.23;105843;1256;71098;-76
2023/08/13 07:41:58;;;;;;;6.40;2.10;;;;;;;22.24;100.00;99896.63;105915;1253;72626;-75
2023/08/13 07:44:25;;;;;;;4.10;1.80;;;;;;;22.32;100.00;99887.65;105796;1256;61359;-75
2023/08/13 07:46:55;;;;;;;8.90;1.80;;;;;;;22.37;100.00;99887.93;105841;1256;61221;-76
2023/08/13 07:49:21;;;;;;;4.70;1.80;;;;;;;22.43;100.00;99885.67;105133;1253;1003576;-75
2023/08/13 07:51:48;;;;;;;2.40;1.80;;;;;;;22.43;100.00;99883.19;105818;1253;71129;-76
2023/08/13 07:54:15;;;;;;;4.20;1.70;;;;;;;22.45;100.00;99885.92;105803;1254;72681;-76
2023/08/13 07:56:45;;;;;;;2.40;1.60;;;;;;;22.45;100.00;99882.29;105793;1256;61350;-75
2023/08/13 07:59:11;;;;;;;3.10;1.80;;;;;;;22.50;100.00;99888.92;105835;1256;61169;-75
2023/08/13 08:01:38;;;;;;;3.10;1.50;;;;;;;22.58;100.00;99891.66;105866;1255;74811;-75
2023/08/13 08:04:05;;;;;;;1.70;1.60;;;;;;;22.66;100.00;99888.88;105878;1257;70994;-75
2023/08/13 08:06:32;;;;;;;1.70;1.30;;;;;;;22.74;100.00;99892.23;105810;1256;61349;-74
2023/08/13 08:08:59;;;;;;;1.60;1.40;;;;;;;22.78;100.00;99880.63;105810;1256;61311;-75
2023/08/13 08:11:27;;;;;;;6.00;1.90;;;;;;;22.78;100.00;99884.72;105787;1264;61242;-75
2023/08/13 08:13:53;;;;;;;3.60;1.50;;;;;;;22.83;100.00;99882.38;105790;1251;74460;-75
2023/08/13 08:16:20;;;;;;;3.30;1.60;;;;;;;22.92;100.00;99878.05;105987;1256;71218;-76
2023/08/13 08:18:47;;;;;;;2.80;1.50;;;;;;;23.03;100.00;99874.31;105726;1254;71380;-74
2023/08/13 08:21:13;;;;;;;2.70;1.50;;;;;;;23.17;100.00;99874.11;105760;1253;61347;-75
2023/08/13 08:23:40;;;;;;;1.50;1.40;;;;;;;23.30;100.00;99872.72;105704;1256;61418;-74
2023/08/13 08:26:07;;;;;;;5.80;1.70;;;;;;;23.36;100.00;99870.09;105848;1256;74707;-74
2023/08/13 08:28:34;;;;;;;5.20;1.50;;;;;;;23.37;100.00;99872.80;105830;1253;71120;-73
2023/08/13 08:31:03;;;;;;;3.50;1.50;;;;;;;23.41;100.00;99875.23;105840;1255;71632;-76
2023/08/13 08:33:30;;;;;;;11.30;2.20;;;;;;;23.44;100.00;99875.54;105770;1256;61342;-75
2023/08/13 08:35:57;;;;;;;1.40;1.30;;;;;;;23.44;100.00;99868.55;105777;1253;61273;-78
2023/08/13 08:38:24;;;;;;;3.80;1.50;;;;;;;23.34;100.00;99872.21;105800;1257;73086;-74
2023/08/13 08:40:53;;;;;;;7.70;2.20;;;;;;;23.19;100.00;99871.62;105792;1255;61243;-75
2023/08/13 08:43:20;;;;;;;5.20;2.50;;;;;;;23.05;100.00;99873.12;105807;1253;71233;-75
2023/08/13 08:45:46;;;;;;;5.60;1.70;;;;;;;22.92;100.00;99876.23;105710;1253;61358;-75
2023/08/13 08:48:14;;;;;;;1.80;1.20;;;;;;;22.84;100.00;99877.44;105712;1256;61347;-75
2023/08/13 08:50:40;;;;;;;3.40;1.30;;;;;;;22.79;100.00;99875.40;105684;1253;74519;-74
2023/08/13 08:53:07;;;;;;;3.80;1.50;;;;;;;22.82;100.00;99873.32;105672;1252;61567;-73
2023/08/13 08:55:34;;;;;;;3.20;1.70;;;;;;;22.96;100.00;99871.63;105563;1254;61328;-74
2023/08/13 08:58:00;;;;;;;1.50;1.30;;;;;;;23.09;100.00;99866.70;105581;1256;61302;-75
2023/08/13 09:00:27;;;;;;;3.80;1.60;;;;;;;23.20;100.00;99872.98;105846;1253;61430;-75
2023/08/13 09:02:54;;;;;;;3.20;1.40;;;;;;;23.28;100.00;99869.64;105797;1256;74526;-74
2023/08/13 09:05:21;;;;;;;3.00;1.20;;;;;;;23.34;100.00;99867.92;105773;1256;69724;-73
2023/08/13 09:07:48;;;;;;;6.50;1.80;;;;;;;23.41;100.00;99861.82;105796;1256;71983;-76
2023/08/13 09:10:15;;;;;;;6.40;1.50;;;;;;;23.48;100.00;99865.13;105899;1255;61276;-75
2023/08/13 09:12:42;;;;;;;5.60;1.50;;;;;;;23.58;100.00;99855.39;105826;1255;61145;-75
2023/08/13 09:15:10;;;;;;;2.90;1.60;;;;;;;23.68;100.00;99858.11;105791;1256;74435;-74
2023/08/13 09:17:40;;;;;;;4.30;1.40;;;;;;;23.79;100.00;99855.20;105896;1261;71016;-74
2023/08/13 09:20:18;;;;;;;2.90;1.50;;;;;;;23.92;100.00;99858.45;105830;1254;73921;-73
2023/08/13 09:22:48;;;;;;;1.60;1.30;;;;;;;24.04;100.00;99853.14;105863;1254;61372;-74
2023/08/13 09:25:15;;;;;;;3.80;1.70;;;;;;;24.13;100.00;99854.52;105887;1255;61253;-75
2023/08/13 09:27:42;;;;;;;3.00;1.10;;;;;;;24.17;100.00;99856.00;105838;1256;74697;-75
2023/08/13 09:30:12;;;;;;;4.60;1.50;;;;;;;24.09;100.00;99855.02;105689;1257;70885;-75
2023/08/13 09:32:41;;;;;;;1.90;1.20;;;;;;;24.03;100.00;99859.69;105711;1256;71498;-73
2023/08/13 09:35:08;;;;;;;2.70;1.60;;;;;;;24.02;100.00;99855.41;105845;1256;61354;-77
2023/08/13 09:37:35;;;;;;;4.30;1.40;;;;;;;24.03;100.00;99857.83;105882;1256;61411;-76
2023/08/13 09:40:01;;;;;;;2.40;1.30;;;;;;;24.05;100.00;99847.64;105785;1256;61212;-74
2023/08/13 09:42:28;;;;;;;3.90;1.40;;;;;;;24.14;100.00;99849.44;105696;1260;71037;-75
2023/08/13 09:44:56;;;;;;;1.10;1.00;;;;;;;24.28;100.00;99852.16;105792;1256;61273;-75
2023/08/13 09:47:25;;;;;;;6.30;1.50;;;;;;;24.41;100.00;99851.52;105811;1256;61327;-75
2023/08/13 09:49:54;;;;;;;6.20;1.40;;;;;;;24.55;100.00;99861.53;105874;1256;61239;-75
2023/08/13 09:52:26;;;;;;;10.00;1.30;;;;;;;24.61;100.00;99854.16;105909;1256;74563;-75
2023/08/13 09:54:57;;;;;;;3.00;1.50;;;;;;;24.67;100.00;99859.90;105871;1256;70830;-75
2023/08/13 09:57:24;;;;;;;3.30;1.50;;;;;;;24.77;100.00;99855.95;105855;1251;72712;-74
2023/08/13 09:59:51;;;;;;;2.50;1.10;;;;;;;24.88;100.00;99847.45;105843;1251;61247;-73
2023/08/13 10:02:18;;;;;;;2.00;1.20;;;;;;;24.92;100.00;99849.98;105712;1256;61320;-73
2023/08/13 10:04:45;;;;;;;3.10;1.10;;;;;;;24.91;100.00;99848.42;105823;1255;74659;-75
2023/08/13 10:07:12;;;;;;;2.00;1.10;;;;;;;24.90;100.00;99858.77;105815;1251;71080;-75
2023/08/13 10:09:39;;;;;;;3.10;1.30;;;;;;;24.91;100.00;99849.55;105810;1256;72454;-75
2023/08/13 10:12:07;;;;;;;1.60;1.30;;;;;;;24.92;100.00;99853.59;105662;1251;61365;-75
2023/08/13 10:14:33;;;;;;;2.00;1.10;;;;;;;24.95;100.00;99851.90;105770;1253;61247;-74
2023/08/13 10:17:06;;;;;;;8.90;2.50;;;;;;;24.97;100.00;99853.63;105789;1251;74642;-75
2023/08/13 10:19:39;;;;;;;3.30;2.30;;;;;;;24.96;100.00;99853.00;105854;1263;71226;-75
2023/08/13 10:22:09;;;;;;;6.00;1.50;;;;;;;24.95;100.00;99849.03;105869;1256;71152;-74
2023/08/13 10:24:36;;;;;;;3.20;1.40;;;;;;;24.99;100.00;99850.30;105729;1256;61267;-74
2023/08/13 10:27:03;;;;;;;4.20;1.70;;;;;;;25.05;100.00;99854.77;105655;1252;61404;-74
2023/08/13 10:29:37;;;;;;;2.20;1.30;;;;;;;25.19;100.00;99855.46;105836;1263;74699;-75
2023/08/13 10:32:14;;;;;;;2.30;1.20;;;;;;;25.29;100.00;99848.31;105753;1265;69872;-75
2023/08/13 10:34:50;;;;;;;1.80;1.30;;;;;;;25.37;100.00;99845.02;105788;1251;71267;-75
2023/08/13 10:37:30;;;;;;;1.90;1.40;;;;;;;25.46;100.00;99841.86;105788;1251;61250;-74
2023/08/13 10:39:56;;;;;;;3.40;1.50;;;;;;;25.55;100.00;99840.36;105686;1257;61250;-74
2023/08/13 10:42:26;;;;;;;2.00;1.20;;;;;;;25.68;100.00;99849.88;105846;1256;74742;-75
2023/08/13 10:45:03;;;;;;;2.10;1.30;;;;;;;25.81;100.00;99842.59;105788;1255;69920;-75
2023/08/13 10:47:43;;;;;;;1.40;1.30;;;;;;;25.84;100.00;99851.49;105827;1256;72691;-75
2023/08/13 10:50:17;;;;;;;2.90;1.40;;;;;;;25.86;100.00;99846.31;105836;1251;61359;-74
2023/08/13 10:52:52;;;;;;;7.40;1.20;;;;;;;25.82;100.00;99847.90;105868;1257;61384;-74
2023/08/13 10:55:22;;;;;;;;;;;;;;;25.68;100.00;99846.52;105897;1251;74510;-74
2023/08/13 10:57:51;;;;;;;6.80;1.40;;;;;;;25.60;100.00;99850.11;105840;1256;70891;-74
2023/08/13 11:00:21;;;;;;;3.10;1.50;;;;;;;25.50;100.00;99852.30;105807;1251;74244;-74
2023/08/13 11:03:14;;;;;;;5.10;2.50;;;;;;;25.35;100.00;99859.78;105836;1251;61749;-75
2023/08/13 11:05:43;;;;;;;10.10;1.60;;;;;;;25.26;100.00;99862.20;105780;1251;61136;-74
2023/08/13 11:08:14;;;;;;;2.40;1.50;;;;;;;25.28;100.00;99861.01;105796;1255;74423;-76
2023/08/13 11:10:41;;;;;;;5.00;1.70;;;;;;;25.38;100.00;99851.45;105761;1257;70813;-75
2023/08/13 11:13:08;;;;;;;5.50;1.50;;;;;;;25.54;100.00;99847.06;105460;1251;419865;-75
2023/08/13 11:15:35;;;;;;;4.50;1.70;;;;;;;25.75;100.00;99852.33;105833;1255;61300;-75
2023/08/13 11:18:03;;;;;;;2.80;1.90;;;;;;;25.86;100.00;99842.34;105876;1252;61354;-75
2023/08/13 11:20:29;;;;;;;4.70;1.50;;;;;;;25.89;100.00;99839.52;105877;1254;74481;-74